createdAt,value
2018-04-11T00:00:04.218Z,11.1
2018-04-11T00:00:53.985Z,11.1
2018-04-11T00:01:44.355Z,11.1
2018-04-11T00:02:33.946Z,11.1
2018-04-11T00:03:24.178Z,11.1
2018-04-11T00:04:14.828Z,11.1
2018-04-11T00:05:04.859Z,11.1
2018-04-11T00:05:54.658Z,11.1
2018-04-11T00:06:45.023Z,11.1
2018-04-11T00:07:35.071Z,11.1
2018-04-11T00:08:25.116Z,11.1
2018-04-11T00:09:14.339Z,11.1
2018-04-11T00:10:05.559Z,11.1
2018-04-11T00:10:55.312Z,11.1
2018-04-11T00:11:45.384Z,11
2018-04-11T00:12:35.172Z,11
2018-04-11T00:13:25.509Z,11
2018-04-11T00:14:15.299Z,11
2018-04-11T00:15:05.062Z,11
2018-04-11T00:15:55.119Z,11
2018-04-11T00:16:45.473Z,11
2018-04-11T00:17:35.276Z,11.1
2018-04-11T00:18:25.883Z,11
2018-04-11T00:19:15.981Z,11
2018-04-11T00:20:05.724Z,11
2018-04-11T00:20:56.052Z,11
2018-04-11T00:21:45.557Z,11
2018-04-11T00:22:35.622Z,11
2018-04-11T00:23:26.308Z,11
2018-04-11T00:24:16.292Z,11
2018-04-11T00:25:06.383Z,11
2018-04-11T00:25:56.151Z,11
2018-04-11T00:26:46.222Z,11
2018-04-11T00:27:36.275Z,11
2018-04-11T00:28:26.634Z,10.9
2018-04-11T00:29:16.411Z,10.9
2018-04-11T00:30:06.751Z,10.9
2018-04-11T00:30:56.560Z,10.9
2018-04-11T00:31:46.889Z,10.9
2018-04-11T00:32:36.369Z,10.9
2018-04-11T00:33:26.717Z,10.9
2018-04-11T00:34:17.057Z,10.9
2018-04-11T00:35:07.127Z,10.9
2018-04-11T00:35:56.904Z,10.9
2018-04-11T00:36:47.269Z,10.9
2018-04-11T00:37:37.298Z,10.9
2018-04-11T00:38:27.134Z,10.9
2018-04-11T00:39:17.360Z,10.9
2018-04-11T00:40:07.528Z,10.9
2018-04-11T00:40:57.542Z,10.9
2018-04-11T00:41:47.647Z,10.9
2018-04-11T00:42:37.682Z,10.9
2018-04-11T00:43:27.765Z,10.9
2018-04-11T00:44:17.824Z,10.9
2018-04-11T00:45:07.603Z,10.9
2018-04-11T00:45:57.642Z,11
2018-04-11T00:46:47.140Z,11
2018-04-11T00:47:38.080Z,11
2018-04-11T00:48:28.112Z,11
2018-04-11T00:49:17.882Z,11
2018-04-11T00:50:08.261Z,11
2018-04-11T00:50:58.306Z,11.1
2018-04-11T00:51:48.106Z,11
2018-04-11T00:52:38.440Z,11
2018-04-11T00:53:27.947Z,11
2018-04-11T00:54:18.564Z,11
2018-04-11T00:55:08.620Z,11
2018-04-11T00:55:58.678Z,11
2018-04-11T00:56:48.726Z,11
2018-04-11T00:57:38.810Z,11
2018-04-11T00:58:28.891Z,10.9
2018-04-11T00:59:18.946Z,10.9
2018-04-11T01:00:08.713Z,10.9
2018-04-11T01:00:58.787Z,10.9
2018-04-11T01:01:48.552Z,10.9
2018-04-11T01:02:39.193Z,10.9
2018-04-11T01:03:28.397Z,10.9
2018-04-11T01:04:19.040Z,10.9
2018-04-11T01:05:09.396Z,10.9
2018-04-11T01:05:58.873Z,10.9
2018-04-11T01:06:48.935Z,10.9
2018-04-11T01:07:39.548Z,10.9
2018-04-11T01:08:29.329Z,10.9
2018-04-11T01:09:19.672Z,10.9
2018-04-11T01:10:09.734Z,10.9
2018-04-11T01:10:59.834Z,10.9
2018-04-11T01:11:49.625Z,10.9
2018-04-11T01:12:39.958Z,10.9
2018-04-11T01:13:30.035Z,10.9
2018-04-11T01:14:19.780Z,10.9
2018-04-11T01:15:10.158Z,10.9
2018-04-11T01:15:59.956Z,10.9
2018-04-11T01:16:50.280Z,10.9
2018-04-11T01:17:40.335Z,10.9
2018-04-11T01:18:30.393Z,10.9
2018-04-11T01:19:19.903Z,10.9
2018-04-11T01:20:10.505Z,10.9
2018-04-11T01:21:00.298Z,10.9
2018-04-11T01:21:50.652Z,10.8
2018-04-11T01:22:40.438Z,10.9
2018-04-11T01:23:30.496Z,10.9
2018-04-11T01:24:20.557Z,10.9
2018-04-11T01:25:10.345Z,10.9
2018-04-11T01:26:00.975Z,10.8
2018-04-11T01:26:51.058Z,10.8
2018-04-11T01:27:41.090Z,10.8
2018-04-11T01:28:31.145Z,10.8
2018-04-11T01:29:20.922Z,10.8
2018-04-11T01:30:10.423Z,10.8
2018-04-11T01:31:01.087Z,10.8
2018-04-11T01:31:50.856Z,10.8
2018-04-11T01:32:41.175Z,10.8
2018-04-11T01:33:31.235Z,10.8
2018-04-11T01:34:21.295Z,10.8
2018-04-11T01:35:11.651Z,10.8
2018-04-11T01:36:01.420Z,10.8
2018-04-11T01:36:51.229Z,10.8
2018-04-11T01:37:41.822Z,10.8
2018-04-11T01:38:31.892Z,10.8
2018-04-11T01:39:21.691Z,10.8
2018-04-11T01:40:12.019Z,10.8
2018-04-11T01:41:01.549Z,10.8
2018-04-11T01:41:51.889Z,10.8
2018-04-11T01:42:42.206Z,10.8
2018-04-11T01:43:31.998Z,10.8
2018-04-11T01:44:22.089Z,10.8
2018-04-11T01:45:12.103Z,10.8
2018-04-11T01:46:02.470Z,10.8
2018-04-11T01:46:52.252Z,10.8
2018-04-11T01:47:42.035Z,10.8
2018-04-11T01:48:32.641Z,10.8
2018-04-11T01:49:22.708Z,10.8
2018-04-11T01:50:12.793Z,10.8
2018-04-11T01:51:02.580Z,10.8
2018-04-11T01:51:52.608Z,10.8
2018-04-11T01:52:42.693Z,10.8
2018-04-11T01:53:33.039Z,10.8
2018-04-11T01:54:22.801Z,10.7
2018-04-11T01:55:12.619Z,10.8
2018-04-11T01:56:02.938Z,10.7
2018-04-11T01:56:52.986Z,10.7
2018-04-11T01:57:43.061Z,10.7
2018-04-11T01:58:33.413Z,10.7
2018-04-11T01:59:23.459Z,10.7
2018-04-11T02:00:13.529Z,10.6
2018-04-11T02:01:03.590Z,10.6
2018-04-11T02:01:53.079Z,10.6
2018-04-11T02:02:43.477Z,10.6
2018-04-11T02:03:33.782Z,10.6
2018-04-11T02:04:23.865Z,10.6
2018-04-11T02:05:13.634Z,10.6
2018-04-11T02:06:03.693Z,10.6
2018-04-11T02:06:54.019Z,10.6
2018-04-11T02:07:43.801Z,10.6
2018-04-11T02:08:34.232Z,10.5
2018-04-11T02:09:23.956Z,10.5
2018-04-11T02:10:14.279Z,10.5
2018-04-11T02:11:04.153Z,10.5
2018-04-11T02:11:54.129Z,10.5
2018-04-11T02:12:44.199Z,10.4
2018-04-11T02:13:33.989Z,10.4
2018-04-11T02:14:24.314Z,10.4
2018-04-11T02:15:14.638Z,10.4
2018-04-11T02:16:04.162Z,10.4
2018-04-11T02:16:54.795Z,10.4
2018-04-11T02:17:44.572Z,10.4
2018-04-11T02:18:34.605Z,10.4
2018-04-11T02:19:25.055Z,10.4
2018-04-11T02:20:15.045Z,10.4
2018-04-11T02:21:04.823Z,10.4
2018-04-11T02:21:55.138Z,10.4
2018-04-11T02:22:44.961Z,10.3
2018-04-11T02:23:35.273Z,10.3
2018-04-11T02:24:25.332Z,10.3
2018-04-11T02:25:15.127Z,10.3
2018-04-11T02:26:05.192Z,10.3
2018-04-11T02:26:55.549Z,10.3
2018-04-11T02:27:45.025Z,10.3
2018-04-11T02:28:35.370Z,10.3
2018-04-11T02:29:25.721Z,10.3
2018-04-11T02:30:15.789Z,10.3
2018-04-11T02:31:05.554Z,10.3
2018-04-11T02:31:55.650Z,10.2
2018-04-11T02:32:45.969Z,10.2
2018-04-11T02:33:35.742Z,10.2
2018-04-11T02:34:26.145Z,10.2
2018-04-11T02:35:15.885Z,10.2
2018-04-11T02:36:06.250Z,10.2
2018-04-11T02:36:56.300Z,10.1
2018-04-11T02:37:45.800Z,10.1
2018-04-11T02:38:36.177Z,10.1
2018-04-11T02:39:26.212Z,10.1
2018-04-11T02:40:16.534Z,10.1
2018-04-11T02:41:06.632Z,10.1
2018-04-11T02:41:56.680Z,10.1
2018-04-11T02:42:46.458Z,10.1
2018-04-11T02:43:36.772Z,10.1
2018-04-11T02:44:26.576Z,10.1
2018-04-11T02:45:16.909Z,10.1
2018-04-11T02:46:06.119Z,10.1
2018-04-11T02:46:56.757Z,10.1
2018-04-11T02:47:46.819Z,10.1
2018-04-11T02:48:36.568Z,10.1
2018-04-11T02:49:27.215Z,10
2018-04-11T02:50:17.273Z,10
2018-04-11T02:51:07.351Z,10.1
2018-04-11T02:51:57.105Z,10
2018-04-11T02:52:47.494Z,10
2018-04-11T02:53:36.973Z,10
2018-04-11T02:54:27.070Z,9.9
2018-04-11T02:55:17.360Z,9.9
2018-04-11T02:56:07.762Z,9.9
2018-04-11T02:56:57.782Z,9.9
2018-04-11T02:57:47.834Z,9.9
2018-04-11T02:58:37.912Z,9.9
2018-04-11T02:59:27.962Z,9.9
2018-04-11T03:00:17.741Z,9.9
2018-04-11T03:01:07.805Z,9.9
2018-04-11T03:01:58.153Z,9.8
2018-04-11T03:02:48.214Z,9.8
2018-04-11T03:03:38.293Z,9.8
2018-04-11T03:04:28.062Z,9.8
2018-04-11T03:05:18.105Z,9.8
2018-04-11T03:06:08.475Z,9.8
2018-04-11T03:06:58.244Z,9.8
2018-04-11T03:07:48.582Z,9.8
2018-04-11T03:08:38.662Z,9.7
2018-04-11T03:09:28.978Z,9.7
2018-04-11T03:10:18.782Z,9.6
2018-04-11T03:11:08.849Z,9.6
2018-04-11T03:11:58.629Z,9.6
2018-04-11T03:12:48.692Z,9.6
2018-04-11T03:13:39.053Z,9.6
2018-04-11T03:14:29.078Z,9.6
2018-04-11T03:15:19.153Z,9.6
2018-04-11T03:16:09.219Z,9.6
2018-04-11T03:16:58.704Z,9.5
2018-04-11T03:17:49.040Z,9.5
2018-04-11T03:18:39.420Z,9.5
2018-04-11T03:19:29.179Z,9.4
2018-04-11T03:20:18.955Z,9.5
2018-04-11T03:21:09.587Z,9.4
2018-04-11T03:21:59.388Z,9.4
2018-04-11T03:22:49.148Z,9.4
2018-04-11T03:23:39.479Z,9.4
2018-04-11T03:24:29.373Z,9.4
2018-04-11T03:25:20.036Z,9.4
2018-04-11T03:26:09.664Z,9.4
2018-04-11T03:27:00.048Z,9.4
2018-04-11T03:27:49.810Z,9.3
2018-04-11T03:28:39.846Z,9.3
2018-04-11T03:29:30.191Z,9.3
2018-04-11T03:30:20.005Z,9.3
2018-04-11T03:31:09.772Z,9.3
2018-04-11T03:32:00.384Z,9.2
2018-04-11T03:32:50.445Z,9.2
2018-04-11T03:33:40.531Z,9.2
2018-04-11T03:34:30.314Z,9.1
2018-04-11T03:35:20.359Z,9.1
2018-04-11T03:36:10.411Z,9.1
2018-04-11T03:37:00.488Z,9.1
2018-04-11T03:37:50.829Z,9.1
2018-04-11T03:38:40.595Z,9.1
2018-04-11T03:39:30.959Z,9
2018-04-11T03:40:20.762Z,9
2018-04-11T03:41:10.507Z,8.9
2018-04-11T03:42:00.848Z,8.9
2018-04-11T03:42:50.929Z,8.9
2018-04-11T03:43:40.982Z,8.9
2018-04-11T03:44:31.317Z,8.9
2018-04-11T03:45:21.409Z,8.9
2018-04-11T03:46:11.158Z,8.9
2018-04-11T03:47:00.956Z,8.9
2018-04-11T03:47:51.590Z,8.9
2018-04-11T03:48:41.392Z,8.8
2018-04-11T03:49:31.122Z,8.8
2018-04-11T03:50:21.179Z,8.8
2018-04-11T03:51:11.538Z,8.8
2018-04-11T03:52:01.620Z,8.8
2018-04-11T03:52:51.754Z,8.8
2018-04-11T03:53:41.449Z,8.7
2018-04-11T03:54:31.812Z,8.7
2018-04-11T03:55:21.573Z,8.6
2018-04-11T03:56:12.212Z,8.6
2018-04-11T03:57:01.711Z,8.7
2018-04-11T03:57:52.314Z,8.6
2018-04-11T03:58:41.824Z,8.6
2018-04-11T03:59:32.197Z,8.6
2018-04-11T04:00:22.525Z,8.6
2018-04-11T04:01:11.721Z,8.6
2018-04-11T04:02:02.384Z,8.6
2018-04-11T04:02:52.458Z,8.6
2018-04-11T04:03:42.766Z,8.6
2018-04-11T04:04:32.550Z,8.6
2018-04-11T04:05:22.886Z,8.6
2018-04-11T04:06:12.967Z,8.6
2018-04-11T04:07:02.737Z,8.6
2018-04-11T04:07:52.799Z,8.6
2018-04-11T04:08:42.845Z,8.6
2018-04-11T04:09:33.208Z,8.6
2018-04-11T04:10:23.264Z,8.5
2018-04-11T04:11:13.088Z,8.5
2018-04-11T04:12:03.129Z,8.6
2018-04-11T04:12:53.467Z,8.6
2018-04-11T04:13:43.621Z,8.6
2018-04-11T04:14:33.574Z,8.6
2018-04-11T04:15:23.349Z,8.6
2018-04-11T04:16:13.689Z,8.6
2018-04-11T04:17:03.481Z,8.6
2018-04-11T04:17:53.540Z,8.6
2018-04-11T04:18:43.897Z,8.6
2018-04-11T04:19:33.644Z,8.6
2018-04-11T04:20:23.722Z,8.6
2018-04-11T04:21:14.060Z,8.6
2018-04-11T04:22:03.866Z,8.6
2018-04-11T04:22:54.192Z,8.6
2018-04-11T04:23:43.960Z,8.7
2018-04-11T04:24:34.305Z,8.7
2018-04-11T04:25:24.095Z,8.7
2018-04-11T04:26:13.892Z,8.7
2018-04-11T04:27:04.497Z,8.8
2018-04-11T04:27:54.273Z,8.8
2018-04-11T04:28:44.341Z,8.8
2018-04-11T04:29:34.409Z,8.8
2018-04-11T04:30:24.892Z,8.8
2018-04-11T04:31:14.805Z,8.8
2018-04-11T04:32:04.901Z,8.9
2018-04-11T04:32:54.658Z,8.9
2018-04-11T04:33:45.023Z,8.9
2018-04-11T04:34:35.062Z,8.9
2018-04-11T04:35:24.841Z,9
2018-04-11T04:36:14.633Z,9
2018-04-11T04:37:04.971Z,9.1
2018-04-11T04:37:55.033Z,9.1
2018-04-11T04:38:44.810Z,9.1
2018-04-11T04:39:35.446Z,9.1
2018-04-11T04:40:25.223Z,9.2
2018-04-11T04:41:15.564Z,9.3
2018-04-11T04:42:05.675Z,9.3
2018-04-11T04:42:54.838Z,9.3
2018-04-11T04:43:45.469Z,9.4
2018-04-11T04:44:35.812Z,9.4
2018-04-11T04:45:25.873Z,9.4
2018-04-11T04:46:15.637Z,9.4
2018-04-11T04:47:05.723Z,9.5
2018-04-11T04:47:55.765Z,9.5
2018-04-11T04:48:46.155Z,9.6
2018-04-11T04:49:36.190Z,9.6
2018-04-11T04:50:26.003Z,9.6
2018-04-11T04:51:16.197Z,9.7
2018-04-11T04:52:06.405Z,9.7
2018-04-11T04:52:56.465Z,9.8
2018-04-11T04:53:46.209Z,9.8
2018-04-11T04:54:36.278Z,9.9
2018-04-11T04:55:26.619Z,9.9
2018-04-11T04:56:16.397Z,9.9
2018-04-11T04:57:06.756Z,10.1
2018-04-11T04:57:56.517Z,10.1
2018-04-11T04:58:46.879Z,10.2
2018-04-11T04:59:36.907Z,10.3
2018-04-11T05:00:26.144Z,10.4
2018-04-11T05:01:16.781Z,10.5
2018-04-11T05:02:06.635Z,10.7
2018-04-11T05:02:56.602Z,10.9
2018-04-11T05:03:46.688Z,11.1
2018-04-11T05:04:37.279Z,11.4
2018-04-11T05:05:26.802Z,11.8
2018-04-11T05:06:16.853Z,12.2
2018-04-11T05:07:07.491Z,12.6
2018-04-11T05:07:56.987Z,12.9
2018-04-11T05:08:47.039Z,13.3
2018-04-11T05:09:37.683Z,13.6
2018-04-11T05:10:27.166Z,13.9
2018-04-11T05:11:17.521Z,14.3
2018-04-11T05:12:07.594Z,14.6
2018-04-11T05:12:57.631Z,14.9
2018-04-11T05:13:47.718Z,15.1
2018-04-11T05:14:38.039Z,15.4
2018-04-11T05:15:28.122Z,15.6
2018-04-11T05:16:18.163Z,15.8
2018-04-11T05:17:08.240Z,16
2018-04-11T05:17:58.002Z,16.2
2018-04-11T05:18:48.071Z,16.3
2018-04-11T05:19:38.405Z,16.5
2018-04-11T05:20:28.465Z,16.6
2018-04-11T05:21:18.258Z,16.8
2018-04-11T05:22:08.602Z,16.9
2018-04-11T05:22:58.402Z,17.1
2018-04-11T05:23:48.709Z,17.3
2018-04-11T05:24:38.500Z,17.5
2018-04-11T05:25:28.856Z,17.7
2018-04-11T05:26:18.904Z,17.9
2018-04-11T05:27:08.998Z,18.1
2018-04-11T05:27:59.014Z,18.3
2018-04-11T05:28:48.812Z,18.4
2018-04-11T05:29:38.853Z,18.6
2018-04-11T05:30:29.241Z,18.8
2018-04-11T05:31:19.330Z,18.9
2018-04-11T05:32:09.343Z,19
2018-04-11T05:32:59.431Z,19.1
2018-04-11T05:34:15.492Z,19.3
2018-04-11T05:35:05.885Z,19.4
2018-04-11T05:35:55.913Z,19.5
2018-04-11T05:36:45.975Z,19.6
2018-04-11T05:37:35.732Z,19.8
2018-04-11T05:38:26.117Z,20
2018-04-11T05:39:16.180Z,20.3
2018-04-11T05:40:06.092Z,20.6
2018-04-11T05:40:56.283Z,21
2018-04-11T05:41:45.775Z,21.4
2018-04-11T05:42:36.399Z,21.9
2018-04-11T05:43:26.201Z,22.3
2018-04-11T05:44:16.232Z,22.6
2018-04-11T05:45:06.602Z,23
2018-04-11T05:45:56.656Z,23.3
2018-04-11T05:46:46.419Z,23.6
2018-04-11T05:47:36.483Z,23.8
2018-04-11T05:48:26.535Z,24
2018-04-11T05:49:16.130Z,24.1
2018-04-11T05:50:06.401Z,24.2
2018-04-11T05:50:56.165Z,24.3
2018-04-11T05:51:46.813Z,24.4
2018-04-11T05:52:36.867Z,24.5
2018-04-11T05:53:26.773Z,24.6
2018-04-11T05:54:16.691Z,24.7
2018-04-11T05:55:06.882Z,24.8
2018-04-11T05:55:56.836Z,25
2018-04-11T05:56:46.601Z,25.1
2018-04-11T05:57:37.247Z,25.3
2018-04-11T05:58:27.292Z,25.5
2018-04-11T05:59:17.652Z,25.8
2018-04-11T06:00:07.413Z,26.3
2018-04-11T06:00:57.809Z,26.8
2018-04-11T06:01:47.256Z,27.3
2018-04-11T06:02:37.603Z,27.9
2018-04-11T06:03:27.671Z,28.5
2018-04-11T06:04:16.948Z,29.2
2018-04-11T06:05:07.591Z,29.9
2018-04-11T06:05:58.245Z,30.5
2018-04-11T06:06:47.905Z,31.1
2018-04-11T06:07:38.285Z,31.6
2018-04-11T06:08:27.900Z,32.1
2018-04-11T06:09:18.113Z,32.8
2018-04-11T06:10:08.442Z,33.4
2018-04-11T06:10:58.217Z,34.3
2018-04-11T06:11:48.411Z,34.9
2018-04-11T06:12:38.627Z,35.4
2018-04-11T06:13:28.407Z,35.8
2018-04-11T06:14:18.275Z,36.1
2018-04-11T06:15:08.832Z,36.4
2018-04-11T06:15:58.874Z,36.8
2018-04-11T06:16:48.994Z,36.9
2018-04-11T06:17:38.999Z,37.2
2018-04-11T06:18:29.079Z,37.4
2018-04-11T06:19:19.119Z,37.5
2018-04-11T06:20:08.631Z,37.7
2018-04-11T06:20:58.962Z,37.9
2018-04-11T06:21:49.065Z,38.2
2018-04-11T06:22:39.416Z,38.6
2018-04-11T06:23:29.416Z,39.9
2018-04-11T06:24:19.217Z,40.7
2018-04-11T06:25:09.273Z,39.3
2018-04-11T06:25:59.341Z,38.3
2018-04-11T06:26:49.399Z,37
2018-04-11T06:27:39.788Z,34.6
2018-04-11T06:28:29.803Z,32.9
2018-04-11T06:29:19.578Z,32.2
2018-04-11T06:30:09.920Z,31.8
2018-04-11T06:30:59.990Z,31.6
2018-04-11T06:31:50.085Z,31.8
2018-04-11T06:32:39.839Z,32.1
2018-04-11T06:33:30.189Z,32.8
2018-04-11T06:34:20.288Z,33.7
2018-04-11T06:35:10.594Z,34.8
2018-04-11T06:36:00.390Z,35.9
2018-04-11T06:36:50.173Z,36.5
2018-04-11T06:37:40.209Z,37.4
2018-04-11T06:38:30.589Z,38.8
2018-04-11T06:39:20.650Z,37.9
2018-04-11T06:40:10.688Z,36.4
2018-04-11T06:41:00.770Z,35.6
2018-04-11T06:41:50.549Z,34.8
2018-04-11T06:42:40.865Z,33.9
2018-04-11T06:43:30.385Z,33.3
2018-04-11T06:44:20.712Z,32.9
2018-04-11T06:45:11.134Z,32.6
2018-04-11T06:46:01.117Z,32.4
2018-04-11T06:46:51.222Z,32.4
2018-04-11T06:47:40.962Z,32.3
2018-04-11T06:48:31.049Z,32.4
2018-04-11T06:49:21.107Z,32.5
2018-04-11T06:50:11.452Z,32.8
2018-04-11T06:51:01.209Z,33.1
2018-04-11T06:51:51.309Z,33.8
2018-04-11T06:52:41.624Z,34.7
2018-04-11T06:53:31.420Z,35.9
2018-04-11T06:54:21.479Z,37.1
2018-04-11T06:55:11.578Z,38.1
2018-04-11T06:56:01.322Z,39.8
2018-04-11T06:56:51.740Z,40.9
2018-04-11T06:57:42.028Z,40.5
2018-04-11T06:58:31.774Z,40.3
2018-04-11T06:59:21.838Z,40.3
2018-04-11T07:00:12.186Z,39.5
2018-04-11T07:01:02.250Z,38.3
2018-04-11T07:01:52.021Z,37.2
2018-04-11T07:02:42.409Z,36.5
2018-04-11T07:03:32.160Z,36.2
2018-04-11T07:04:22.491Z,36.1
2018-04-11T07:05:12.553Z,36.1
2018-04-11T07:06:02.371Z,35.9
2018-04-11T07:06:52.675Z,35.8
2018-04-11T07:07:42.748Z,35.8
2018-04-11T07:08:32.548Z,35.6
2018-04-11T07:09:22.884Z,35.4
2018-04-11T07:10:12.933Z,35.6
2018-04-11T07:11:02.728Z,36.3
2018-04-11T07:11:53.058Z,37
2018-04-11T07:12:43.122Z,37.8
2018-04-11T07:13:33.199Z,38.4
2018-04-11T07:14:23.249Z,38.7
2018-04-11T07:15:13.372Z,38.6
2018-04-11T07:16:03.399Z,38.2
2018-04-11T07:16:53.449Z,37.7
2018-04-11T07:17:43.238Z,37.5
2018-04-11T07:18:33.586Z,38.1
2018-04-11T07:19:23.622Z,39.1
2018-04-11T07:20:13.698Z,39.6
2018-04-11T07:21:03.759Z,39.8
2018-04-11T07:21:53.809Z,39.8
2018-04-11T07:22:43.912Z,39.6
2018-04-11T07:23:33.952Z,39.3
2018-04-11T07:24:24.015Z,38.8
2018-04-11T07:25:14.072Z,38.2
2018-04-11T07:26:04.282Z,37.9
2018-04-11T07:26:54.202Z,37.8
2018-04-11T07:27:44.006Z,38.2
2018-04-11T07:28:34.337Z,38.8
2018-04-11T07:29:24.114Z,39.1
2018-04-11T07:30:14.157Z,39.4
2018-04-11T07:31:04.511Z,39.5
2018-04-11T07:31:54.624Z,39.6
2018-04-11T07:32:44.355Z,39.8
2018-04-11T07:33:34.735Z,40
2018-04-11T07:34:24.477Z,39.7
2018-04-11T07:35:14.563Z,39.1
2018-04-11T07:36:04.898Z,38.6
2018-04-11T07:36:54.998Z,38.3
2018-04-11T07:37:44.732Z,38.5
2018-04-11T07:38:34.521Z,39.3
2018-04-11T07:39:24.862Z,40.8
2018-04-11T07:40:15.071Z,42.5
2018-04-11T07:41:05.264Z,44
2018-04-11T07:41:55.348Z,44.8
2018-04-11T07:42:45.105Z,44.7
2018-04-11T07:43:35.448Z,44
2018-04-11T07:44:25.231Z,43.3
2018-04-11T07:45:15.305Z,42.8
2018-04-11T07:46:05.714Z,43.1
2018-04-11T07:46:55.413Z,43.9
2018-04-11T07:47:45.777Z,44.5
2018-04-11T07:48:35.819Z,44.9
2018-04-11T07:49:25.900Z,45.4
2018-04-11T07:50:15.688Z,45.9
2018-04-11T07:51:05.476Z,46.6
2018-04-11T07:51:55.497Z,47.1
2018-04-11T07:52:46.141Z,47.5
2018-04-11T07:53:36.239Z,47.9
2018-04-11T07:54:26.351Z,48.3
2018-04-11T07:55:16.044Z,48.7
2018-04-11T07:56:06.130Z,49.1
2018-04-11T07:56:56.190Z,49.3
2018-04-11T07:57:46.264Z,49.4
2018-04-11T07:58:36.302Z,49.7
2018-04-11T07:59:26.687Z,50.3
2018-04-11T08:00:16.452Z,50.6
2018-04-11T08:01:05.932Z,50.8
2018-04-11T08:01:56.836Z,50.9
2018-04-11T08:02:46.650Z,51
2018-04-11T08:03:37.009Z,51.1
2018-04-11T08:04:26.748Z,50.9
2018-04-11T08:05:16.819Z,50.9
2018-04-11T08:06:07.147Z,51.1
2018-04-11T08:06:56.934Z,51.1
2018-04-11T08:07:47.350Z,51.3
2018-04-11T08:08:37.361Z,51.2
2018-04-11T08:09:27.407Z,51.1
2018-04-11T08:10:17.469Z,50.8
2018-04-11T08:11:07.537Z,50.6
2018-04-11T08:11:57.616Z,50.4
2018-04-11T08:12:47.661Z,50
2018-04-11T08:13:37.441Z,49.8
2018-04-11T08:14:27.828Z,50.1
2018-04-11T08:15:17.676Z,50.6
2018-04-11T08:16:07.933Z,50.4
2018-04-11T08:16:57.995Z,50.1
2018-04-11T08:17:47.786Z,49.8
2018-04-11T08:18:37.554Z,49.8
2018-04-11T08:19:28.185Z,50.3
2018-04-11T08:20:18.223Z,51.1
2018-04-11T08:21:08.337Z,51.5
2018-04-11T08:22:48.169Z,52.6
2018-04-11T08:23:37.973Z,53.4
2018-04-11T08:24:28.275Z,53.9
2018-04-11T08:25:18.358Z,54.1
2018-04-11T08:26:08.691Z,54.3
2018-04-11T08:26:58.483Z,54.8
2018-04-11T08:27:48.266Z,55.1
2018-04-11T08:28:38.875Z,55.4
2018-04-11T08:29:28.663Z,55.7
2018-04-11T08:30:18.731Z,56.1
2018-04-11T08:31:08.770Z,56.6
2018-04-11T08:31:59.133Z,56.9
2018-04-11T08:32:49.180Z,57.3
2018-04-11T08:33:39.243Z,57.4
2018-04-11T08:35:19.118Z,58
2018-04-11T08:36:09.433Z,58.4
2018-04-11T08:36:59.205Z,58.8
2018-04-11T08:37:49.610Z,59.1
2018-04-11T08:38:39.647Z,59.4
2018-04-11T08:39:29.690Z,59.7
2018-04-11T08:40:19.759Z,59.8
2018-04-11T08:41:09.845Z,60
2018-04-11T08:41:59.902Z,59.9
2018-04-11T08:42:49.672Z,59.9
2018-04-11T08:43:39.765Z,60.3
2018-04-11T08:44:30.074Z,60.4
2018-04-11T08:45:20.160Z,60.7
2018-04-11T08:46:10.204Z,60.9
2018-04-11T08:47:00.269Z,61.1
2018-04-11T08:47:50.084Z,61.1
2018-04-11T08:48:40.436Z,61.1
2018-04-11T08:49:30.178Z,61.3
2018-04-11T08:50:20.508Z,61.4
2018-04-11T08:51:10.612Z,61.4
2018-04-11T08:52:00.098Z,61.4
2018-04-11T08:52:50.699Z,61.4
2018-04-11T08:53:40.768Z,61.2
2018-04-11T08:54:30.859Z,61
2018-04-11T08:55:20.644Z,61
2018-04-11T08:56:10.398Z,61.3
2018-04-11T08:57:00.746Z,61.4
2018-04-11T08:57:51.085Z,61.3
2018-04-11T08:58:41.161Z,61.1
2018-04-11T08:59:30.671Z,61.2
2018-04-11T09:00:21.008Z,61.3
2018-04-11T09:01:11.361Z,61.2
2018-04-11T09:02:01.171Z,61.1
2018-04-11T09:02:51.231Z,61.2
2018-04-11T09:03:41.563Z,61.5
2018-04-11T09:04:31.339Z,61.8
2018-04-11T09:05:21.777Z,62.1
2018-04-11T09:06:11.462Z,62.8
2018-04-11T09:07:01.811Z,63.4
2018-04-11T09:07:51.856Z,64.2
2018-04-11T09:08:41.938Z,64.4
2018-04-11T09:09:31.976Z,64.6
2018-04-11T09:10:22.068Z,64.7
2018-04-11T09:11:12.098Z,64.4
2018-04-11T09:12:02.175Z,64
2018-04-11T09:12:51.983Z,63.5
2018-04-11T09:13:42.300Z,63.1
2018-04-11T09:14:32.358Z,62.8
2018-04-11T09:15:22.443Z,62.4
2018-04-11T09:16:12.520Z,62
2018-04-11T09:17:02.581Z,61.4
2018-04-11T09:17:52.355Z,60.8
2018-04-11T09:18:42.406Z,60.1
2018-04-11T09:19:32.910Z,59.3
2018-04-11T09:20:22.547Z,58.8
2018-04-11T09:21:12.957Z,58.4
2018-04-11T09:22:02.665Z,57.8
2018-04-11T09:22:53.015Z,57.7
2018-04-11T09:23:42.809Z,58
2018-04-11T09:24:32.898Z,58.4
2018-04-11T09:25:23.201Z,58.8
2018-04-11T09:26:13.560Z,58.9
2018-04-11T09:27:03.355Z,59
2018-04-11T09:27:53.388Z,58.8
2018-04-11T09:28:43.445Z,58.4
2018-04-11T09:29:33.237Z,58.1
2018-04-11T09:30:23.611Z,57.8
2018-04-11T09:31:13.357Z,57.6
2018-04-11T09:32:03.745Z,57.6
2018-04-11T09:32:53.782Z,57.8
2018-04-11T09:33:43.820Z,58
2018-04-11T09:34:33.910Z,57.8
2018-04-11T09:35:23.958Z,57.6
2018-04-11T09:36:13.790Z,57.1
2018-04-11T09:37:04.111Z,56.6
2018-04-11T09:37:53.620Z,56
2018-04-11T09:38:44.135Z,55.3
2018-04-11T09:39:33.715Z,55
2018-04-11T09:40:24.073Z,54.9
2018-04-11T09:41:14.116Z,54.9
2018-04-11T09:42:04.479Z,55.1
2018-04-11T09:42:54.549Z,55.2
2018-04-11T09:43:44.323Z,55.3
2018-04-11T09:44:34.392Z,55.3
2018-04-11T09:45:24.475Z,55.3
2018-04-11T09:46:14.816Z,55.2
2018-04-11T09:47:04.289Z,55.1
2018-04-11T09:47:54.655Z,55
2018-04-11T09:48:44.496Z,54.9
2018-04-11T09:49:35.061Z,54.8
2018-04-11T09:50:25.139Z,54.7
2018-04-11T09:51:14.143Z,54.8
2018-04-11T09:52:05.252Z,54.9
2018-04-11T09:52:55.296Z,54.8
2018-04-11T09:53:45.086Z,55.1
2018-04-11T09:54:35.146Z,56
2018-04-11T09:55:25.504Z,57.5
2018-04-11T09:56:15.560Z,58.4
2018-04-11T09:57:05.371Z,58.8
2018-04-11T09:57:55.413Z,58.8
2018-04-11T09:58:45.772Z,58.8
2018-04-11T09:59:35.548Z,58.7
2018-04-11T10:00:25.871Z,58.6
2018-04-11T10:01:15.686Z,58.9
2018-04-11T10:02:05.741Z,59.3
2018-04-11T10:02:56.085Z,59.6
2018-04-11T10:03:45.592Z,59.7
2018-04-11T10:04:35.926Z,59.6
2018-04-11T10:05:26.017Z,59.4
2018-04-11T10:06:16.378Z,59.3
2018-04-11T10:07:06.417Z,59.3
2018-04-11T10:07:56.464Z,59.3
2018-04-11T10:08:46.257Z,59.4
2018-04-11T10:09:36.033Z,59.8
2018-04-11T10:10:25.888Z,60
2018-04-11T10:11:16.713Z,60.1
2018-04-11T10:12:06.400Z,60
2018-04-11T10:12:56.851Z,59.8
2018-04-11T10:13:46.651Z,59.2
2018-04-11T10:15:26.753Z,58.1
2018-04-11T10:16:17.176Z,57.7
2018-04-11T10:17:06.606Z,57.6
2018-04-11T10:17:56.946Z,57.8
2018-04-11T10:18:47.289Z,58.3
2018-04-11T10:19:37.426Z,58.6
2018-04-11T10:20:26.585Z,59
2018-04-11T10:21:17.494Z,59.3
2018-04-11T10:22:06.973Z,59.3
2018-04-11T10:22:57.638Z,59.2
2018-04-11T10:23:47.203Z,59
2018-04-11T10:24:37.492Z,58.9
2018-04-11T10:25:27.643Z,58.6
2018-04-11T10:26:17.041Z,58.3
2018-04-11T10:27:07.950Z,58.3
2018-04-11T10:28:47.806Z,58.9
2018-04-11T10:29:38.155Z,59.3
2018-04-11T10:30:28.199Z,59.8
2018-04-11T10:31:17.708Z,60.5
2018-04-11T10:32:08.083Z,61.3
2018-04-11T10:32:58.403Z,62.1
2018-04-11T10:33:48.453Z,62.8
2018-04-11T10:34:38.229Z,63.3
2018-04-11T10:35:28.317Z,63.7
2018-04-11T10:36:18.667Z,64
2018-04-11T10:37:08.710Z,64.4
2018-04-11T10:37:58.784Z,64.6
2018-04-11T10:38:48.867Z,64.9
2018-04-11T10:39:38.624Z,65.3
2018-04-11T10:40:28.976Z,65.8
2018-04-11T10:41:17.874Z,66.4
2018-04-11T10:42:09.095Z,66.8
2018-04-11T10:42:58.881Z,67.2
2018-04-11T10:43:48.929Z,67.5
2018-04-11T10:44:38.997Z,67.8
2018-04-11T10:45:29.349Z,67.9
2018-04-11T10:46:19.124Z,68.1
2018-04-11T10:47:09.197Z,68.3
2018-04-11T10:47:59.556Z,68.5
2018-04-11T10:48:49.593Z,68.8
2018-04-11T10:49:39.403Z,69.1
2018-04-11T10:50:29.467Z,69.1
2018-04-11T10:51:19.807Z,69.1
2018-04-11T10:52:09.597Z,69.3
2018-04-11T10:52:59.366Z,69.4
2018-04-11T10:53:49.472Z,69.6
2018-04-11T10:54:40.053Z,69.9
2018-04-11T10:55:30.131Z,70.2
2018-04-11T10:56:20.183Z,70.4
2018-04-11T10:57:10.239Z,70.5
2018-04-11T10:57:59.756Z,70.4
2018-04-11T10:58:50.380Z,70.6
2018-04-11T10:59:40.171Z,70.6
2018-04-11T11:00:30.226Z,70.6
2018-04-11T11:01:19.730Z,70.6
2018-04-11T11:02:10.373Z,70.7
2018-04-11T11:03:00.708Z,70.8
2018-04-11T11:03:50.762Z,71
2018-04-11T11:04:40.630Z,71.1
2018-04-11T11:05:30.908Z,71.1
2018-04-11T11:06:20.380Z,71
2018-04-11T11:07:10.740Z,70.7
2018-04-11T11:08:01.074Z,70.7
2018-04-11T11:08:50.863Z,71
2018-04-11T11:09:41.412Z,71.2
2018-04-11T11:10:30.720Z,71.3
2018-04-11T11:11:21.059Z,71.4
2018-04-11T11:12:11.141Z,70.5
2018-04-11T11:13:01.530Z,69.8
2018-04-11T11:13:51.563Z,69.6
2018-04-11T11:14:41.335Z,69.1
2018-04-11T11:15:30.915Z,68.4
2018-04-11T11:16:21.859Z,67.8
2018-04-11T11:17:11.497Z,66.8
2018-04-11T11:18:01.294Z,65.7